Time;durP1;ratioP1;P1;durP2;ratioP2;P2;SDS_P1;SDS_P2;PMS_P1;PMS_P2;Temp;Humidity;BMP_temperature;BMP_pressure;BME280_temperature;BME280_humidity;BME280_pressure;Samples;Min_cycle;Max_cycle;Signal;HPM_P1;HPM_P2
2024/02/12 04:45:14;;;;;;;2.97;0.45;;;;;;;4.19;100.00;99011.03;4900633;29;20037;-95
2024/02/12 04:47:57;;;;;;;1.55;0.30;;;;;;;4.19;100.00;99010.22;4901823;29;20049;-96
2024/02/12 04:50:45;;;;;;;3.28;0.50;;;;;;;4.17;100.00;99010.31;4903898;29;20033;-96
2024/02/12 04:53:44;;;;;;;4.60;0.88;;;;;;;4.16;100.00;99010.38;4902133;29;20021;-96
2024/02/12 04:56:40;;;;;;;7.57;0.88;;;;;;;4.08;100.00;99003.13;4904836;29;20033;-95
2024/02/12 04:59:39;;;;;;;4.25;0.90;;;;;;;4.06;100.00;99010.88;4892513;29;20049;-96
2024/02/12 05:02:33;;;;;;;3.85;0.55;;;;;;;4.07;100.00;99011.69;4906024;29;20033;-96
2024/02/12 05:05:57;;;;;;;7.72;0.90;;;;;;;3.92;100.00;99017.63;4905730;29;20029;-96
2024/02/12 05:16:29;;;;;;;8.30;0.98;;;;;;;3.62;100.00;99028.53;5814302;23;20943;-96
2024/02/12 05:24:27;;;;;;;6.18;0.57;;;;;;;3.47;100.00;99027.59;4942712;29;20052;-94
2024/02/12 05:26:54;;;;;;;1.35;0.20;;;;;;;3.42;100.00;99025.25;4941516;29;20024;-96
2024/02/12 05:29:20;;;;;;;1.70;0.45;;;;;;;3.37;100.00;99027.22;4942338;29;20008;-96
2024/02/12 05:31:47;;;;;;;4.05;0.35;;;;;;;3.30;100.00;99028.44;4942046;29;20031;-96
2024/02/12 05:34:13;;;;;;;2.88;0.40;;;;;;;3.26;100.00;99038.88;4942104;29;20005;-96
2024/02/12 05:36:39;;;;;;;0.80;0.30;;;;;;;3.22;100.00;99038.22;4938669;29;20028;-95
2024/02/12 05:39:09;;;;;;;1.85;0.32;;;;;;;3.35;100.00;99039.22;4926212;29;20024;-96
2024/02/12 05:41:35;;;;;;;5.47;0.52;;;;;;;3.26;100.00;99047.34;4939294;29;20021;-96
2024/02/12 05:44:00;;;;;;;1.00;0.30;;;;;;;3.27;100.00;99040.50;4940267;29;20071;-96
2024/02/12 05:46:26;;;;;;;0.95;0.43;;;;;;;3.11;100.00;99036.16;4941052;29;20016;-96
2024/02/12 05:48:57;;;;;;;3.97;0.43;;;;;;;3.13;100.00;99042.03;4940854;29;20039;-96
2024/02/12 05:51:23;;;;;;;2.60;0.63;;;;;;;3.24;100.00;99051.69;4940703;29;20075;-96
2024/02/12 05:53:50;;;;;;;5.45;0.65;;;;;;;3.11;100.00;99048.91;4939920;29;20032;-96
2024/02/12 05:56:16;;;;;;;6.10;0.52;;;;;;;2.84;100.00;99058.72;4940006;29;20091;-95
2024/02/12 05:58:41;;;;;;;2.47;0.30;;;;;;;2.79;100.00;99061.50;4938179;29;20088;-96
2024/02/12 06:01:07;;;;;;;2.90;0.50;;;;;;;2.66;100.00;99065.53;4937154;29;20096;-96
2024/02/12 06:03:33;;;;;;;1.95;0.57;;;;;;;2.72;100.00;99070.31;4936792;29;20095;-96
2024/02/12 06:05:59;;;;;;;2.50;0.40;;;;;;;2.68;100.00;99070.53;4938136;29;20032;-96
2024/02/12 06:08:24;;;;;;;0.50;0.32;;;;;;;2.64;100.00;99071.59;4938304;29;20044;-96
2024/02/12 06:10:50;;;;;;;2.95;0.60;;;;;;;2.64;100.00;99076.69;4936881;29;20548;-96
2024/02/12 06:13:17;;;;;;;0.60;0.38;;;;;;;2.51;100.00;99074.72;4937232;29;20036;-95
2024/02/12 06:15:43;;;;;;;4.38;0.40;;;;;;;2.51;100.00;99071.31;4936439;29;20052;-96
2024/02/12 06:18:09;;;;;;;1.35;0.30;;;;;;;2.50;100.00;99084.97;4936584;29;20032;-96
2024/02/12 06:20:35;;;;;;;1.13;0.40;;;;;;;2.45;100.00;99089.44;4937792;29;20024;-96
2024/02/12 06:23:03;;;;;;;0.90;0.43;;;;;;;2.54;100.00;99089.84;4938281;29;20032;-95
2024/02/12 06:25:29;;;;;;;7.95;0.95;;;;;;;2.50;100.00;99087.50;4937323;29;20104;-96
2024/02/12 06:27:58;;;;;;;1.20;0.25;;;;;;;2.53;100.00;99095.00;4951517;29;20044;-96
2024/02/12 06:30:34;;;;;;;1.17;0.30;;;;;;;2.43;100.00;99098.88;4937665;29;20040;-96
2024/02/12 06:33:00;;;;;;;0.50;0.25;;;;;;;2.34;100.00;99111.13;4920893;29;20032;-96
2024/02/12 06:35:26;;;;;;;1.77;0.50;;;;;;;2.25;100.00;99110.72;4936924;29;20019;-96
2024/02/12 06:37:52;;;;;;;1.52;0.28;;;;;;;2.31;100.00;99130.78;4936356;29;20040;-96
2024/02/12 06:40:24;;;;;;;6.18;0.60;;;;;;;1.98;100.00;99120.41;4935536;29;20088;-95
2024/02/12 06:42:51;;;;;;;4.18;0.47;;;;;;;2.00;100.00;99121.97;4936360;29;20051;-96
2024/02/12 06:45:18;;;;;;;4.38;0.60;;;;;;;2.04;100.00;99108.22;4935985;29;20108;-96
2024/02/12 06:47:44;;;;;;;0.43;0.38;;;;;;;2.03;100.00;99126.94;4935545;29;20039;-96
2024/02/12 06:50:15;;;;;;;1.40;0.43;;;;;;;2.13;100.00;99140.91;4935993;29;20032;-95
2024/02/12 06:52:45;;;;;;;3.05;0.70;;;;;;;2.18;100.00;99145.78;4936643;29;20036;-96
2024/02/12 06:55:11;;;;;;;6.88;0.60;;;;;;;2.17;100.00;99154.34;4935788;29;20038;-96
2024/02/12 06:57:40;;;;;;;3.03;0.70;;;;;;;2.06;100.00;99149.69;4935968;29;20058;-96
2024/02/12 07:00:06;;;;;;;3.40;0.52;;;;;;;2.08;100.00;99142.81;4936112;29;20024;-96
2024/02/12 07:02:35;;;;;;;9.35;1.02;;;;;;;2.01;100.00;99151.63;4937579;29;20096;-96
2024/02/12 07:05:04;;;;;;;7.50;0.65;;;;;;;1.88;100.00;99160.69;4934996;29;20096;-96
2024/02/12 07:07:33;;;;;;;2.30;0.75;;;;;;;1.62;100.00;99166.84;4933507;29;20028;-96
2024/02/12 07:10:00;;;;;;;4.65;0.60;;;;;;;1.66;100.00;99179.38;4932866;29;20028;-96
2024/02/12 07:12:27;;;;;;;4.55;0.85;;;;;;;1.83;100.00;99193.09;4933543;29;20044;-96
2024/02/12 07:14:53;;;;;;;1.13;0.47;;;;;;;1.96;100.00;99206.16;4934128;29;20028;-96
2024/02/12 07:17:19;;;;;;;1.60;0.85;;;;;;;1.82;100.00;99199.91;4934274;29;20036;-96
2024/02/12 07:19:51;;;;;;;1.15;0.40;;;;;;;1.86;100.00;99203.16;4935297;29;20032;-95
2024/02/12 07:22:21;;;;;;;2.15;0.70;;;;;;;1.81;100.00;99207.63;4935404;29;20076;-96
2024/02/12 07:24:51;;;;;;;2.00;0.60;;;;;;;1.80;100.00;99216.13;4935353;29;20088;-96
2024/02/12 07:27:22;;;;;;;1.55;0.60;;;;;;;1.83;100.00;99215.97;4935257;29;20100;-96
2024/02/12 07:29:51;;;;;;;2.88;0.60;;;;;;;1.81;100.00;99212.69;4934762;29;20074;-96
2024/02/12 07:32:17;;;;;;;3.72;0.75;;;;;;;1.69;100.00;99214.84;4936006;29;20024;-96
2024/02/12 07:34:50;;;;;;;2.10;0.75;;;;;;;1.65;100.00;99215.84;4936646;29;20060;-96
2024/02/12 07:37:20;;;;;;;2.85;1.00;;;;;;;1.80;100.00;99226.28;4921362;29;20052;-96
2024/02/12 07:39:49;;;;;;;1.65;0.73;;;;;;;1.74;100.00;99234.19;4938382;29;20031;-95
2024/02/12 07:42:15;;;;;;;3.13;0.70;;;;;;;1.80;100.00;99234.75;4937349;29;20016;-95
2024/02/12 07:44:44;;;;;;;1.80;0.75;;;;;;;1.86;100.00;99261.69;4938084;29;20055;-96
2024/02/12 07:47:21;;;;;;;1.35;0.80;;;;;;;1.78;100.00;99250.97;4938264;29;20040;-95
2024/02/12 07:50:01;;;;;;;8.27;1.00;;;;;;;1.77;100.00;99267.13;4939281;29;20059;-96
2024/02/12 07:52:36;;;;;;;1.33;0.68;;;;;;;1.75;100.00;99268.91;4924034;29;20056;-94
2024/02/12 07:55:14;;;;;;;4.40;1.02;;;;;;;1.83;100.00;99277.03;4923539;29;20076;-95
2024/02/12 07:57:50;;;;;;;2.13;0.65;;;;;;;1.83;100.00;99279.59;4938631;29;20023;-96
2024/02/12 08:00:26;;;;;;;3.17;0.98;;;;;;;1.86;100.00;99287.94;4934445;29;20072;-96
2024/02/12 08:03:16;;;;;;;4.30;1.05;;;;;;;1.92;100.00;99289.41;4937245;29;20048;-95
2024/02/12 08:05:52;;;;;;;3.95;0.90;;;;;;;2.05;100.00;99295.66;4939808;29;20051;-95
2024/02/12 08:08:48;;;;;;;11.65;1.73;;;;;;;2.14;100.00;99302.91;4940184;29;20038;-96
2024/02/12 08:11:24;;;;;;;13.23;2.22;;;;;;;2.24;100.00;99315.25;4924560;29;20036;-96
2024/02/12 08:14:01;;;;;;;7.05;1.77;;;;;;;2.36;100.00;99327.47;4924655;29;20032;-96
2024/02/12 08:16:36;;;;;;;4.80;1.30;;;;;;;2.37;100.00;99324.06;4939492;29;20036;-96
2024/02/12 08:19:12;;;;;;;8.98;1.50;;;;;;;2.57;100.00;99334.22;4938569;29;20047;-96
2024/02/12 08:21:47;;;;;;;9.43;1.60;;;;;;;2.65;100.00;99345.81;4934916;29;20043;-96
2024/02/12 08:24:24;;;;;;;3.58;1.48;;;;;;;2.70;100.00;99336.25;4923037;29;20064;-96
2024/02/12 08:26:58;;;;;;;9.60;1.60;;;;;;;2.83;100.00;99341.63;4943039;29;20104;-96
2024/02/12 08:29:48;;;;;;;10.07;1.80;;;;;;;2.92;100.00;99346.34;4927464;29;20021;-96
2024/02/12 08:32:16;;;;;;;8.30;1.60;;;;;;;3.18;100.00;99357.94;4942849;29;20016;-96
2024/02/12 08:35:09;;;;;;;7.72;1.88;;;;;;;3.25;100.00;99363.59;4942570;29;20036;-96
2024/02/12 08:37:41;;;;;;;8.80;1.70;;;;;;;3.34;100.00;99365.72;4944183;29;20043;-96
2024/02/12 08:40:38;;;;;;;11.48;2.13;;;;;;;3.31;100.00;99366.69;4925566;29;20020;-96
2024/02/12 08:43:49;;;;;;;11.88;3.05;;;;;;;3.38;100.00;99365.53;4938627;29;20019;-96
2024/02/12 08:46:33;;;;;;;3.88;1.40;;;;;;;3.54;100.00;99390.34;4931552;29;20037;-96
2024/02/12 08:49:04;;;;;;;4.35;2.10;;;;;;;3.42;100.00;99392.56;4941569;29;20039;-96
2024/02/12 08:51:38;;;;;;;8.00;2.88;;;;;;;3.39;100.00;99387.59;4943010;29;20012;-96
2024/02/12 08:54:53;;;;;;;6.72;1.90;;;;;;;3.85;100.00;99405.91;4941147;29;20048;-96
2024/02/12 08:57:24;;;;;;;8.55;2.08;;;;;;;3.70;100.00;99401.50;4943260;29;20131;-96
2024/02/12 09:02:26;;;;;;;5.80;1.90;;;;;;;4.01;100.00;99410.31;5638936;23;20056;-95
2024/02/12 09:04:52;;;;;;;5.97;1.65;;;;;;;3.85;100.00;99415.28;4935478;29;20024;-95
2024/02/12 09:17:39;;;;;;;7.65;1.88;;;;;;;5.03;100.00;99436.88;5196153;23;20079;-96
2024/02/12 09:20:07;;;;;;;6.00;1.70;;;;;;;5.22;100.00;99439.28;4941459;29;20032;-95
2024/02/12 09:22:33;;;;;;;5.32;2.50;;;;;;;5.27;100.00;99445.03;4942291;29;20016;-96
2024/02/12 09:25:01;;;;;;;4.22;1.27;;;;;;;5.98;100.00;99448.09;4942148;29;20031;-96
2024/02/12 09:45:40;;;;;;;7.35;1.63;;;;;;;11.94;74.84;99482.53;5307692;23;20056;-96
2024/02/12 09:48:07;;;;;;;5.85;1.42;;;;;;;13.20;69.45;99478.34;4938007;29;20005;-96
2024/02/12 09:50:33;;;;;;;6.60;1.52;;;;;;;12.97;70.88;99487.19;4922887;29;20029;-96
2024/02/12 09:52:59;;;;;;;3.00;1.20;;;;;;;12.58;74.45;99484.34;4922505;29;20016;-96
2024/02/12 09:55:28;;;;;;;5.00;1.45;;;;;;;12.73;71.48;99493.47;4922167;29;20096;-96
2024/02/12 09:57:53;;;;;;;4.70;1.58;;;;;;;12.47;70.68;99497.34;4922944;29;20029;-96
2024/02/12 10:00:19;;;;;;;6.22;1.10;;;;;;;11.66;80.68;99501.94;4922334;29;20061;-96
2024/02/12 10:02:53;;;;;;;6.72;1.88;;;;;;;12.13;78.56;99510.38;4922054;29;20036;-96
2024/02/12 10:05:23;;;;;;;8.10;1.27;;;;;;;13.84;70.42;99508.38;4922852;29;20021;-96
2024/02/12 10:07:52;;;;;;;3.97;0.82;;;;;;;12.97;67.95;99520.88;5526169;23;20021;-96
2024/02/12 10:10:18;;;;;;;5.47;1.13;;;;;;;14.08;65.94;99523.59;4942260;29;20043;-96
2024/02/12 10:12:50;;;;;;;4.20;0.85;;;;;;;11.88;76.30;99527.00;4941933;29;20028;-96
2024/02/12 10:15:18;;;;;;;4.85;1.38;;;;;;;11.21;87.18;99530.31;4941606;29;20008;-96
2024/02/12 10:17:46;;;;;;;3.42;1.00;;;;;;;11.76;84.00;99531.31;4940920;29;20005;-96
2024/02/12 10:20:11;;;;;;;3.92;1.25;;;;;;;11.86;80.94;99527.06;4942354;29;20004;-96
2024/02/12 10:22:39;;;;;;;4.65;1.00;;;;;;;10.31;82.35;99532.53;4941372;29;20043;-96
2024/02/12 10:27:41;;;;;;;4.90;0.82;;;;;;;11.60;87.27;99543.75;5348247;23;20048;-96
2024/02/12 10:30:08;;;;;;;2.85;0.68;;;;;;;11.75;83.04;99552.91;4937427;29;20092;-95
2024/02/12 10:32:35;;;;;;;6.25;1.48;;;;;;;11.77;81.14;99562.19;4939709;29;20016;-96
2024/02/12 10:35:06;;;;;;;7.07;0.80;;;;;;;11.66;79.23;99553.63;4939141;29;20028;-96
2024/02/12 10:37:33;;;;;;;;;;;;;;;12.45;76.62;99561.34;4939435;29;20028;-96
2024/02/12 10:40:08;;;;;;;3.20;1.15;;;;;;;12.85;75.78;99552.03;4938849;29;19915;-96
2024/02/12 10:42:41;;;;;;;5.28;0.80;;;;;;;12.57;74.80;99565.53;4940028;29;20050;-96
2024/02/12 10:45:07;;;;;;;9.63;1.00;;;;;;;12.81;72.52;99567.94;4939223;29;20056;-96
2024/02/12 10:47:36;;;;;;;8.27;0.90;;;;;;;13.08;74.25;99559.69;4938582;29;20040;-96
2024/02/12 10:50:04;;;;;;;5.32;1.02;;;;;;;12.83;71.58;99561.69;4940537;29;20009;-96
2024/02/12 10:52:36;;;;;;;4.82;1.13;;;;;;;12.90;73.66;99567.19;4940622;29;20028;-96
2024/02/12 10:55:03;;;;;;;5.22;0.90;;;;;;;12.94;71.62;99573.75;4967436;23;20043;-96
2024/02/12 11:05:21;;;;;;;5.95;1.17;;;;;;;-143.29;100.00;62188.47;5749747;23;20040;-96
2024/02/12 11:07:47;;;;;;;6.60;1.05;;;;;;;-143.29;100.00;62188.47;4941253;29;20096;-96
2024/02/12 11:10:18;;;;;;;4.47;0.80;;;;;;;-143.29;100.00;62188.47;4941364;29;20159;-96
2024/02/12 11:12:47;;;;;;;8.20;1.02;;;;;;;-143.29;100.00;62188.47;4940790;29;20020;-96
2024/02/12 11:15:19;;;;;;;3.75;0.98;;;;;;;-143.29;100.00;62188.47;4940711;29;20009;-96
2024/02/12 11:17:45;;;;;;;6.65;1.17;;;;;;;-143.29;100.00;62188.47;4941066;29;20016;-95
2024/02/12 11:20:25;;;;;;;5.55;0.82;;;;;;;-143.29;100.00;62188.47;4940691;29;20023;-95
2024/02/12 11:22:52;;;;;;;8.20;1.25;;;;;;;-143.29;100.00;62188.47;4940058;29;20033;-96
2024/02/12 11:25:18;;;;;;;7.13;1.50;;;;;;;-143.29;100.00;62188.47;4939505;29;20113;-96
2024/02/12 11:27:52;;;;;;;6.70;0.90;;;;;;;-143.29;100.00;62188.47;4939544;29;20035;-95
2024/02/12 11:40:41;;;;;;;6.78;2.20;;;;;;;-143.29;100.00;62188.47;5567012;23;20083;-96
2024/02/12 11:43:07;;;;;;;11.40;1.63;;;;;;;-143.29;100.00;62188.47;4939862;29;20095;-96
2024/02/12 11:48:11;;;;;;;7.35;1.90;;;;;;;-143.29;100.00;62188.47;5808690;23;20049;-96
2024/02/12 11:50:37;;;;;;;8.15;1.73;;;;;;;-143.29;100.00;62188.47;4939742;29;20071;-96
2024/02/12 11:53:05;;;;;;;5.32;2.15;;;;;;;-143.29;100.00;62188.47;4939243;29;20080;-95
2024/02/12 11:55:31;;;;;;;7.82;1.85;;;;;;;-143.29;100.00;62188.47;4940321;29;20052;-96
2024/02/12 11:57:58;;;;;;;7.93;1.40;;;;;;;-143.29;100.00;62188.47;4939385;29;20035;-95
2024/02/12 12:00:23;;;;;;;11.43;1.40;;;;;;;-143.29;100.00;62188.47;4942231;29;20036;-95
2024/02/12 12:02:51;;;;;;;8.70;1.35;;;;;;;-143.29;100.00;62188.47;4943020;29;20039;-96
2024/02/12 12:05:38;;;;;;;6.15;1.35;;;;;;;-143.29;100.00;62188.47;4943051;29;20124;-96
2024/02/12 12:08:06;;;;;;;8.07;1.15;;;;;;;-143.29;100.00;62188.47;4943461;29;20004;-96
2024/02/12 12:10:35;;;;;;;10.80;1.15;;;;;;;-143.29;100.00;62188.47;4943820;29;20011;-96
2024/02/12 12:13:01;;;;;;;9.23;1.85;;;;;;;-143.29;100.00;62188.47;4943726;29;20019;-96
2024/02/12 12:15:28;;;;;;;4.75;0.60;;;;;;;-143.29;100.00;62188.47;4943693;29;20032;-96
2024/02/12 12:17:54;;;;;;;5.78;0.80;;;;;;;-143.29;100.00;62188.47;4943698;29;20008;-95
2024/02/12 12:20:20;;;;;;;4.07;0.70;;;;;;;-143.29;100.00;62188.47;4943832;29;20039;-95
